sensor_id;sensor_type;location;lat;lon;timestamp;pressure;altitude;pressure_sealevel;temperature;humidity
61136;BME280;47021;51.340;12.432;2023-02-15T00:00:31;101641.38;;;4.84;68.43
61136;BME280;47021;51.340;12.432;2023-02-15T00:03:04;101638.53;;;4.91;68.19
61136;BME280;47021;51.340;12.432;2023-02-15T00:05:37;101635.06;;;4.68;69.30
61136;BME280;47021;51.340;12.432;2023-02-15T00:08:07;101637.44;;;4.74;68.93
61136;BME280;47021;51.340;12.432;2023-02-15T00:10:40;101637.38;;;4.75;68.53
61136;BME280;47021;51.340;12.432;2023-02-15T00:13:11;101638.66;;;4.64;68.61
61136;BME280;47021;51.340;12.432;2023-02-15T00:15:36;101632.53;;;4.66;68.49
61136;BME280;47021;51.340;12.432;2023-02-15T00:18:05;101622.34;;;4.62;68.92
61136;BME280;47021;51.340;12.432;2023-02-15T00:28:38;101627.91;;;4.51;68.74
61136;BME280;47021;51.340;12.432;2023-02-15T00:31:12;101610.78;;;4.47;68.78
61136;BME280;47021;51.340;12.432;2023-02-15T00:33:37;101614.47;;;4.40;69.19
61136;BME280;47021;51.340;12.432;2023-02-15T00:36:17;101616.41;;;4.34;69.18
61136;BME280;47021;51.340;12.432;2023-02-15T00:38:43;101610.56;;;4.28;69.85
61136;BME280;47021;51.340;12.432;2023-02-15T00:41:14;101612.41;;;4.50;68.88
61136;BME280;47021;51.340;12.432;2023-02-15T00:43:42;101610.03;;;4.44;68.45
61136;BME280;47021;51.340;12.432;2023-02-15T00:46:08;101606.91;;;4.34;68.64
61136;BME280;47021;51.340;12.432;2023-02-15T00:48:34;101609.09;;;4.46;68.44
61136;BME280;47021;51.340;12.432;2023-02-15T00:51:00;101606.63;;;4.43;67.88
61136;BME280;47021;51.340;12.432;2023-02-15T00:53:25;101601.38;;;4.45;68.23
61136;BME280;47021;51.340;12.432;2023-02-15T00:55:51;101598.63;;;4.24;68.95
61136;BME280;47021;51.340;12.432;2023-02-15T00:58:17;101595.56;;;4.38;68.39
61136;BME280;47021;51.340;12.432;2023-02-15T01:03:37;101599.25;;;3.80;70.87
61136;BME280;47021;51.340;12.432;2023-02-15T01:06:04;101598.69;;;3.97;70.17
61136;BME280;47021;51.340;12.432;2023-02-15T01:08:34;101596.19;;;4.20;68.99
61136;BME280;47021;51.340;12.432;2023-02-15T01:11:04;101602.38;;;4.41;68.96
61136;BME280;47021;51.340;12.432;2023-02-15T01:13:32;101598.06;;;4.41;68.58
61136;BME280;47021;51.340;12.432;2023-02-15T01:16:15;101608.66;;;4.34;68.43
61136;BME280;47021;51.340;12.432;2023-02-15T01:18:47;101601.41;;;4.18;68.61
61136;BME280;47021;51.340;12.432;2023-02-15T01:21:15;101599.56;;;4.22;68.82
61136;BME280;47021;51.340;12.432;2023-02-15T01:23:48;101597.22;;;4.41;68.08
61136;BME280;47021;51.340;12.432;2023-02-15T01:26:14;101590.53;;;4.35;68.33
61136;BME280;47021;51.340;12.432;2023-02-15T01:28:39;101593.44;;;4.24;68.32
61136;BME280;47021;51.340;12.432;2023-02-15T01:31:06;101589.53;;;4.39;68.28
61136;BME280;47021;51.340;12.432;2023-02-15T01:33:34;101589.53;;;4.39;67.99
61136;BME280;47021;51.340;12.432;2023-02-15T01:35:59;101580.50;;;4.51;67.61
61136;BME280;47021;51.340;12.432;2023-02-15T01:38:26;101580.41;;;4.54;67.39
61136;BME280;47021;51.340;12.432;2023-02-15T01:40:54;101578.78;;;4.50;67.16
61136;BME280;47021;51.340;12.432;2023-02-15T01:43:19;101581.28;;;4.53;66.88
61136;BME280;47021;51.340;12.432;2023-02-15T01:45:45;101572.53;;;4.32;67.02
61136;BME280;47021;51.340;12.432;2023-02-15T01:48:25;101576.97;;;4.02;67.91
61136;BME280;47021;51.340;12.432;2023-02-15T01:50:55;101573.78;;;3.94;68.06
61136;BME280;47021;51.340;12.432;2023-02-15T01:58:32;101572.03;;;3.96;68.48
61136;BME280;47021;51.340;12.432;2023-02-15T02:01:05;101562.56;;;4.21;67.71
61136;BME280;47021;51.340;12.432;2023-02-15T02:06:04;101555.16;;;4.36;67.36
61136;BME280;47021;51.340;12.432;2023-02-15T02:11:08;101561.66;;;4.22;67.14
61136;BME280;47021;51.340;12.432;2023-02-15T02:13:35;101556.84;;;4.37;66.86
61136;BME280;47021;51.340;12.432;2023-02-15T02:21:20;101554.25;;;3.86;67.54
61136;BME280;47021;51.340;12.432;2023-02-15T02:32:00;101537.22;;;4.31;66.60
61136;BME280;47021;51.340;12.432;2023-02-15T02:42:36;101539.28;;;4.21;66.53
61136;BME280;47021;51.340;12.432;2023-02-15T02:45:08;101548.16;;;4.14;66.49
61136;BME280;47021;51.340;12.432;2023-02-15T02:47:38;101540.09;;;3.97;66.52
61136;BME280;47021;51.340;12.432;2023-02-15T02:50:12;101536.94;;;3.89;66.66
61136;BME280;47021;51.340;12.432;2023-02-15T02:52:47;101535.00;;;3.96;66.20
61136;BME280;47021;51.340;12.432;2023-02-15T03:03:14;101529.88;;;3.68;67.17
61136;BME280;47021;51.340;12.432;2023-02-15T03:05:53;101522.22;;;3.65;67.18
61136;BME280;47021;51.340;12.432;2023-02-15T03:08:31;101519.34;;;3.74;66.95
61136;BME280;47021;51.340;12.432;2023-02-15T03:10:58;101509.34;;;3.90;66.82
61136;BME280;47021;51.340;12.432;2023-02-15T03:13:25;101517.53;;;4.02;66.57
61136;BME280;47021;51.340;12.432;2023-02-15T03:15:57;101512.78;;;3.90;66.10
61136;BME280;47021;51.340;12.432;2023-02-15T03:20:54;101502.94;;;4.01;66.26
61136;BME280;47021;51.340;12.432;2023-02-15T03:23:27;101496.63;;;4.10;66.49
61136;BME280;47021;51.340;12.432;2023-02-15T03:26:01;101506.34;;;4.02;67.00
61136;BME280;47021;51.340;12.432;2023-02-15T03:28:33;101501.88;;;4.07;66.76
61136;BME280;47021;51.340;12.432;2023-02-15T03:31:13;101506.19;;;4.06;66.47
61136;BME280;47021;51.340;12.432;2023-02-15T03:42:05;101499.44;;;3.78;67.64
61136;BME280;47021;51.340;12.432;2023-02-15T03:47:20;101488.97;;;3.56;69.19
61136;BME280;47021;51.340;12.432;2023-02-15T03:54:57;101486.28;;;4.10;67.29
61136;BME280;47021;51.340;12.432;2023-02-15T03:57:23;101493.53;;;3.99;67.51
61136;BME280;47021;51.340;12.432;2023-02-15T03:59:49;101490.91;;;4.00;67.47
61136;BME280;47021;51.340;12.432;2023-02-15T04:02:21;101485.63;;;4.03;67.63
61136;BME280;47021;51.340;12.432;2023-02-15T04:04:47;101490.50;;;4.12;67.08
61136;BME280;47021;51.340;12.432;2023-02-15T04:07:15;101480.16;;;4.12;67.00
61136;BME280;47021;51.340;12.432;2023-02-15T04:09:46;101487.78;;;4.15;66.73
61136;BME280;47021;51.340;12.432;2023-02-15T04:12:13;101486.00;;;4.17;66.55
61136;BME280;47021;51.340;12.432;2023-02-15T04:14:51;101482.56;;;3.92;67.57
61136;BME280;47021;51.340;12.432;2023-02-15T04:20:02;101480.81;;;4.17;66.61
61136;BME280;47021;51.340;12.432;2023-02-15T04:22:28;101482.53;;;4.18;66.62
61136;BME280;47021;51.340;12.432;2023-02-15T04:24:53;101485.38;;;4.11;67.01
61136;BME280;47021;51.340;12.432;2023-02-15T04:27:18;101491.91;;;4.21;66.88
61136;BME280;47021;51.340;12.432;2023-02-15T04:29:48;101497.03;;;4.22;66.83
61136;BME280;47021;51.340;12.432;2023-02-15T04:32:15;101490.84;;;4.26;66.73
61136;BME280;47021;51.340;12.432;2023-02-15T04:34:40;101487.47;;;4.24;66.42
61136;BME280;47021;51.340;12.432;2023-02-15T04:37:07;101489.97;;;4.03;66.95
61136;BME280;47021;51.340;12.432;2023-02-15T04:42:19;101475.56;;;3.96;66.67
61136;BME280;47021;51.340;12.432;2023-02-15T04:44:45;101475.81;;;3.88;66.53
61136;BME280;47021;51.340;12.432;2023-02-15T04:47:18;101465.88;;;3.78;67.23
61136;BME280;47021;51.340;12.432;2023-02-15T04:49:43;101463.38;;;3.75;67.61
61136;BME280;47021;51.340;12.432;2023-02-15T04:52:10;101464.38;;;3.71;68.26
61136;BME280;47021;51.340;12.432;2023-02-15T04:54:35;101467.28;;;3.86;67.75
61136;BME280;47021;51.340;12.432;2023-02-15T04:57:06;101464.28;;;3.98;67.30
61136;BME280;47021;51.340;12.432;2023-02-15T04:59:32;101458.22;;;3.99;67.57
61136;BME280;47021;51.340;12.432;2023-02-15T05:01:57;101455.44;;;4.05;67.27
61136;BME280;47021;51.340;12.432;2023-02-15T05:04:24;101449.44;;;4.03;67.57
61136;BME280;47021;51.340;12.432;2023-02-15T05:06:50;101445.78;;;3.86;67.57
61136;BME280;47021;51.340;12.432;2023-02-15T05:09:29;101445.19;;;4.02;67.36
61136;BME280;47021;51.340;12.432;2023-02-15T05:12:09;101438.63;;;3.94;67.26
61136;BME280;47021;51.340;12.432;2023-02-15T05:14:35;101432.00;;;3.85;68.01
61136;BME280;47021;51.340;12.432;2023-02-15T05:17:19;101431.25;;;4.06;67.23
61136;BME280;47021;51.340;12.432;2023-02-15T05:19:57;101437.13;;;4.11;66.81
61136;BME280;47021;51.340;12.432;2023-02-15T05:22:23;101439.03;;;4.06;67.17
61136;BME280;47021;51.340;12.432;2023-02-15T05:24:54;101438.22;;;4.04;67.02
61136;BME280;47021;51.340;12.432;2023-02-15T05:27:19;101438.22;;;4.04;67.02
61136;BME280;47021;51.340;12.432;2023-02-15T05:29:46;101446.16;;;4.00;66.74
61136;BME280;47021;51.340;12.432;2023-02-15T05:32:12;101433.16;;;4.01;66.70
61136;BME280;47021;51.340;12.432;2023-02-15T05:34:39;101433.28;;;3.98;66.60
61136;BME280;47021;51.340;12.432;2023-02-15T05:37:05;101435.81;;;4.00;66.83
61136;BME280;47021;51.340;12.432;2023-02-15T05:39:30;101437.66;;;3.96;66.48
61136;BME280;47021;51.340;12.432;2023-02-15T05:41:58;101435.56;;;4.07;66.46
61136;BME280;47021;51.340;12.432;2023-02-15T05:44:24;101427.63;;;4.12;66.62
61136;BME280;47021;51.340;12.432;2023-02-15T05:47:01;101427.09;;;4.02;66.64
61136;BME280;47021;51.340;12.432;2023-02-15T05:52:12;101428.16;;;3.97;67.04
61136;BME280;47021;51.340;12.432;2023-02-15T05:54:40;101428.50;;;4.11;66.50
61136;BME280;47021;51.340;12.432;2023-02-15T05:57:06;101434.09;;;4.23;66.59
61136;BME280;47021;51.340;12.432;2023-02-15T05:59:47;101429.03;;;4.20;66.09
61136;BME280;47021;51.340;12.432;2023-02-15T06:02:28;101434.88;;;4.02;66.54
61136;BME280;47021;51.340;12.432;2023-02-15T06:04:55;101433.06;;;3.80;66.46
61136;BME280;47021;51.340;12.432;2023-02-15T06:07:38;101442.22;;;3.64;66.80
61136;BME280;47021;51.340;12.432;2023-02-15T06:10:05;101432.44;;;3.73;67.03
61136;BME280;47021;51.340;12.432;2023-02-15T06:12:31;101434.72;;;3.82;66.60
61136;BME280;47021;51.340;12.432;2023-02-15T06:14:58;101432.59;;;3.93;66.69
61136;BME280;47021;51.340;12.432;2023-02-15T06:17:37;101435.28;;;3.90;66.47
61136;BME280;47021;51.340;12.432;2023-02-15T06:22:46;101439.88;;;3.82;66.49
61136;BME280;47021;51.340;12.432;2023-02-15T06:25:19;101438.75;;;3.65;67.77
61136;BME280;47021;51.340;12.432;2023-02-15T06:27:52;101441.84;;;3.76;68.49
61136;BME280;47021;51.340;12.432;2023-02-15T06:30:29;101441.50;;;3.85;68.55
61136;BME280;47021;51.340;12.432;2023-02-15T06:32:55;101440.03;;;4.02;67.96
61136;BME280;47021;51.340;12.432;2023-02-15T06:35:20;101438.50;;;3.97;67.28
61136;BME280;47021;51.340;12.432;2023-02-15T06:37:46;101431.69;;;3.94;67.13
61136;BME280;47021;51.340;12.432;2023-02-15T06:40:12;101439.88;;;3.82;67.36
61136;BME280;47021;51.340;12.432;2023-02-15T06:42:37;101435.13;;;3.70;68.01
61136;BME280;47021;51.340;12.432;2023-02-15T06:45:17;101440.88;;;4.03;67.70
61136;BME280;47021;51.340;12.432;2023-02-15T06:47:51;101437.13;;;4.11;66.77
61136;BME280;47021;51.340;12.432;2023-02-15T06:50:22;101435.88;;;3.98;67.31
61136;BME280;47021;51.340;12.432;2023-02-15T06:52:47;101435.91;;;3.97;67.22
61136;BME280;47021;51.340;12.432;2023-02-15T06:55:21;101430.25;;;3.87;67.63
61136;BME280;47021;51.340;12.432;2023-02-15T06:57:52;101429.47;;;3.84;67.28
61136;BME280;47021;51.340;12.432;2023-02-15T07:00:35;101438.63;;;3.94;67.57
61136;BME280;47021;51.340;12.432;2023-02-15T07:03:01;101438.16;;;3.83;67.68
61136;BME280;47021;51.340;12.432;2023-02-15T07:05:27;101433.06;;;4.04;67.24
61136;BME280;47021;51.340;12.432;2023-02-15T07:08:01;101435.13;;;3.95;67.45
61136;BME280;47021;51.340;12.432;2023-02-15T07:10:26;101432.63;;;4.16;67.52
61136;BME280;47021;51.340;12.432;2023-02-15T07:12:57;101437.16;;;4.35;66.95
61136;BME280;47021;51.340;12.432;2023-02-15T07:15:25;101434.88;;;4.25;66.79
61136;BME280;47021;51.340;12.432;2023-02-15T07:17:50;101435.44;;;4.34;66.78
61136;BME280;47021;51.340;12.432;2023-02-15T07:20:17;101431.13;;;4.57;66.75
61136;BME280;47021;51.340;12.432;2023-02-15T07:22:44;101427.84;;;4.52;66.54
61136;BME280;47021;51.340;12.432;2023-02-15T07:25:09;101423.72;;;4.70;66.17
61136;BME280;47021;51.340;12.432;2023-02-15T07:27:37;101419.06;;;4.79;66.12
61136;BME280;47021;51.340;12.432;2023-02-15T07:30:12;101421.88;;;4.73;66.19
61136;BME280;47021;51.340;12.432;2023-02-15T07:32:38;101420.94;;;4.53;66.76
61136;BME280;47021;51.340;12.432;2023-02-15T07:35:06;101408.78;;;4.78;66.36
61136;BME280;47021;51.340;12.432;2023-02-15T07:37:31;101409.69;;;4.98;66.27
61136;BME280;47021;51.340;12.432;2023-02-15T07:39:56;101403.25;;;5.09;65.90
61136;BME280;47021;51.340;12.432;2023-02-15T07:42:21;101408.97;;;4.95;66.33
61136;BME280;47021;51.340;12.432;2023-02-15T07:45:02;101401.59;;;5.28;66.04
61136;BME280;47021;51.340;12.432;2023-02-15T07:47:28;101388.78;;;5.45;65.46
61136;BME280;47021;51.340;12.432;2023-02-15T07:49:56;101389.00;;;5.60;65.38
61136;BME280;47021;51.340;12.432;2023-02-15T07:52:23;101392.81;;;5.72;64.72
61136;BME280;47021;51.340;12.432;2023-02-15T07:54:51;101381.47;;;5.75;64.72
61136;BME280;47021;51.340;12.432;2023-02-15T07:57:16;101383.66;;;5.84;64.63
61136;BME280;47021;51.340;12.432;2023-02-15T07:59:42;101374.56;;;5.75;64.60
61136;BME280;47021;51.340;12.432;2023-02-15T08:02:10;101384.34;;;5.89;64.71
61136;BME280;47021;51.340;12.432;2023-02-15T08:04:38;101374.47;;;5.97;64.29
61136;BME280;47021;51.340;12.432;2023-02-15T08:07:04;101372.72;;;5.97;64.64
61136;BME280;47021;51.340;12.432;2023-02-15T08:09:29;101370.72;;;6.04;64.97
61136;BME280;47021;51.340;12.432;2023-02-15T08:11:55;101374.06;;;6.06;64.81
61136;BME280;47021;51.340;12.432;2023-02-15T08:14:21;101368.13;;;5.84;64.99
61136;BME280;47021;51.340;12.432;2023-02-15T08:19:37;101364.56;;;6.25;64.87
61136;BME280;47021;51.340;12.432;2023-02-15T08:22:04;101363.25;;;6.16;65.20
61136;BME280;47021;51.340;12.432;2023-02-15T08:24:32;101364.06;;;6.35;64.97
61136;BME280;47021;51.340;12.432;2023-02-15T08:27:05;101364.16;;;6.53;64.59
61136;BME280;47021;51.340;12.432;2023-02-15T08:29:37;101357.34;;;6.69;64.11
61136;BME280;47021;51.340;12.432;2023-02-15T08:32:06;101357.03;;;6.75;64.25
61136;BME280;47021;51.340;12.432;2023-02-15T08:37:16;101347.84;;;7.03;63.58
61136;BME280;47021;51.340;12.432;2023-02-15T08:39:49;101352.19;;;7.20;65.19
61136;BME280;47021;51.340;12.432;2023-02-15T08:42:28;101340.28;;;7.50;65.26
61136;BME280;47021;51.340;12.432;2023-02-15T08:44:53;101348.59;;;7.57;64.58
61136;BME280;47021;51.340;12.432;2023-02-15T08:47:27;101345.28;;;7.88;64.60
61136;BME280;47021;51.340;12.432;2023-02-15T08:50:00;101346.69;;;7.93;64.02
61136;BME280;47021;51.340;12.432;2023-02-15T08:52:27;101342.66;;;8.20;63.90
61136;BME280;47021;51.340;12.432;2023-02-15T08:54:53;101337.91;;;8.28;63.86
61136;BME280;47021;51.340;12.432;2023-02-15T08:57:18;101339.00;;;8.40;63.49
61136;BME280;47021;51.340;12.432;2023-02-15T08:59:45;101329.78;;;8.50;62.81
61136;BME280;47021;51.340;12.432;2023-02-15T09:02:11;101333.13;;;8.36;62.04
61136;BME280;47021;51.340;12.432;2023-02-15T09:04:36;101335.28;;;8.28;61.63
61136;BME280;47021;51.340;12.432;2023-02-15T09:07:11;101336.41;;;8.23;61.30
61136;BME280;47021;51.340;12.432;2023-02-15T09:09:39;101335.91;;;8.16;61.69
61136;BME280;47021;51.340;12.432;2023-02-15T09:12:05;101329.44;;;8.08;61.42
61136;BME280;47021;51.340;12.432;2023-02-15T09:14:38;101338.25;;;8.21;61.35
61136;BME280;47021;51.340;12.432;2023-02-15T09:17:03;101333.69;;;8.26;61.73
61136;BME280;47021;51.340;12.432;2023-02-15T09:19:35;101338.03;;;8.25;61.12
61136;BME280;47021;51.340;12.432;2023-02-15T09:22:01;101330.59;;;8.35;61.01
61136;BME280;47021;51.340;12.432;2023-02-15T09:24:26;101329.19;;;8.45;60.98
61136;BME280;47021;51.340;12.432;2023-02-15T09:26:52;101327.03;;;8.20;61.16
61136;BME280;47021;51.340;12.432;2023-02-15T09:29:17;101324.81;;;8.45;61.07
61136;BME280;47021;51.340;12.432;2023-02-15T09:31:44;101320.84;;;8.70;60.27
61136;BME280;47021;51.340;12.432;2023-02-15T09:34:12;101314.78;;;8.69;59.96
61136;BME280;47021;51.340;12.432;2023-02-15T09:36:40;101316.00;;;8.64;60.26
61136;BME280;47021;51.340;12.432;2023-02-15T09:39:07;101316.19;;;8.90;59.84
61136;BME280;47021;51.340;12.432;2023-02-15T09:41:36;101311.94;;;9.03;59.12
61136;BME280;47021;51.340;12.432;2023-02-15T09:49:27;101312.97;;;9.01;59.33
61136;BME280;47021;51.340;12.432;2023-02-15T09:52:02;101320.50;;;9.21;58.64
61136;BME280;47021;51.340;12.432;2023-02-15T09:55:14;101317.88;;;9.21;58.62
61136;BME280;47021;51.340;12.432;2023-02-15T10:00:07;101312.88;;;9.32;58.38
61136;BME280;47021;51.340;12.432;2023-02-15T10:05:25;101315.88;;;8.81;58.97
61136;BME280;47021;51.340;12.432;2023-02-15T10:08:13;101315.34;;;8.90;58.95
61136;BME280;47021;51.340;12.432;2023-02-15T10:26:45;101298.28;;;10.28;54.35
61136;BME280;47021;51.340;12.432;2023-02-15T10:34:35;101298.88;;;10.46;54.24
61136;BME280;47021;51.340;12.432;2023-02-15T10:39:55;101290.31;;;10.44;54.97
61136;BME280;47021;51.340;12.432;2023-02-15T11:06:09;101250.69;;;11.28;52.24
61136;BME280;47021;51.340;12.432;2023-02-15T11:08:39;101248.41;;;11.62;51.65
61136;BME280;47021;51.340;12.432;2023-02-15T11:16:34;101235.78;;;11.92;50.74
61136;BME280;47021;51.340;12.432;2023-02-15T11:19:11;101233.75;;;11.59;51.47
61136;BME280;47021;51.340;12.432;2023-02-15T11:21:40;101230.09;;;11.74;51.23
61136;BME280;47021;51.340;12.432;2023-02-15T11:24:10;101227.88;;;11.81;51.20
61136;BME280;47021;51.340;12.432;2023-02-15T11:26:46;101222.03;;;11.77;50.65
61136;BME280;47021;51.340;12.432;2023-02-15T11:31:53;101228.91;;;11.78;51.45
61136;BME280;47021;51.340;12.432;2023-02-15T11:36:51;101230.03;;;11.99;50.89
61136;BME280;47021;51.340;12.432;2023-02-15T11:39:20;101223.03;;;12.47;49.06
61136;BME280;47021;51.340;12.432;2023-02-15T11:41:55;101224.75;;;12.36;49.47
61136;BME280;47021;51.340;12.432;2023-02-15T11:44:30;101222.19;;;12.47;49.39
61136;BME280;47021;51.340;12.432;2023-02-15T11:47:11;101222.16;;;12.12;50.38
61136;BME280;47021;51.340;12.432;2023-02-15T11:49:38;101207.16;;;12.72;48.95
61136;BME280;47021;51.340;12.432;2023-02-15T11:52:08;101199.34;;;12.49;49.14
61136;BME280;47021;51.340;12.432;2023-02-15T11:54:36;101200.00;;;12.74;48.84
61136;BME280;47021;51.340;12.432;2023-02-15T12:02:33;101190.72;;;12.70;48.56
61136;BME280;47021;51.340;12.432;2023-02-15T12:05:03;101191.31;;;13.09;47.52
61136;BME280;47021;51.340;12.432;2023-02-15T12:10:26;101191.56;;;13.39;46.70
61136;BME280;47021;51.340;12.432;2023-02-15T12:15:37;101186.22;;;13.52;46.90
61136;BME280;47021;51.340;12.432;2023-02-15T12:20:48;101180.22;;;13.83;45.73
61136;BME280;47021;51.340;12.432;2023-02-15T12:23:14;101181.41;;;13.79;46.46
61136;BME280;47021;51.340;12.432;2023-02-15T12:28:43;101168.31;;;14.10;46.03
61136;BME280;47021;51.340;12.432;2023-02-15T12:31:02;101157.28;;;14.28;45.39
61136;BME280;47021;51.340;12.432;2023-02-15T12:33:30;101165.06;;;13.75;46.56
61136;BME280;47021;51.340;12.432;2023-02-15T12:36:09;101161.34;;;13.78;47.03
61136;BME280;47021;51.340;12.432;2023-02-15T12:38:35;101175.22;;;14.23;45.79
61136;BME280;47021;51.340;12.432;2023-02-15T12:41:04;101162.22;;;14.32;45.45
61136;BME280;47021;51.340;12.432;2023-02-15T12:43:40;101168.69;;;14.69;44.84
61136;BME280;47021;51.340;12.432;2023-02-15T12:51:54;101156.91;;;14.64;44.41
61136;BME280;47021;51.340;12.432;2023-02-15T12:54:36;101163.31;;;14.50;44.28
61136;BME280;47021;51.340;12.432;2023-02-15T12:57:19;101154.66;;;14.39;44.63
61136;BME280;47021;51.340;12.432;2023-02-15T12:59:50;101151.38;;;14.88;44.26
61136;BME280;47021;51.340;12.432;2023-02-15T13:02:36;101153.50;;;14.94;44.03
61136;BME280;47021;51.340;12.432;2023-02-15T13:05:10;101147.28;;;15.25;44.46
61136;BME280;47021;51.340;12.432;2023-02-15T13:07:38;101138.59;;;15.34;44.31
61136;BME280;47021;51.340;12.432;2023-02-15T13:10:33;101141.63;;;15.29;44.24
61136;BME280;47021;51.340;12.432;2023-02-15T13:12:56;101142.72;;;15.27;43.78
61136;BME280;47021;51.340;12.432;2023-02-15T13:18:17;101131.34;;;15.57;43.58
61136;BME280;47021;51.340;12.432;2023-02-15T13:21:04;101121.56;;;15.78;43.33
61136;BME280;47021;51.340;12.432;2023-02-15T13:23:32;101121.81;;;15.25;42.70
61136;BME280;47021;51.340;12.432;2023-02-15T13:26:08;101117.38;;;15.56;42.94
61136;BME280;47021;51.340;12.432;2023-02-15T13:36:49;101101.78;;;15.43;42.67
61136;BME280;47021;51.340;12.432;2023-02-15T13:47:25;101097.88;;;15.97;42.07
61136;BME280;47021;51.340;12.432;2023-02-15T13:52:26;101097.19;;;16.14;40.97
61136;BME280;47021;51.340;12.432;2023-02-15T14:00:42;101090.81;;;15.97;40.38
61136;BME280;47021;51.340;12.432;2023-02-15T14:05:49;101094.56;;;15.85;40.80
61136;BME280;47021;51.340;12.432;2023-02-15T14:21:19;101089.00;;;16.27;40.42
61136;BME280;47021;51.340;12.432;2023-02-15T14:29:11;101078.31;;;16.38;40.49
61136;BME280;47021;51.340;12.432;2023-02-15T14:31:43;101078.69;;;16.62;39.76
61136;BME280;47021;51.340;12.432;2023-02-15T14:37:11;101075.81;;;16.55;39.38
61136;BME280;47021;51.340;12.432;2023-02-15T14:39:43;101074.16;;;16.54;38.82
61136;BME280;47021;51.340;12.432;2023-02-15T14:42:17;101080.78;;;16.39;39.11
61136;BME280;47021;51.340;12.432;2023-02-15T14:44:48;101076.63;;;16.56;38.51
61136;BME280;47021;51.340;12.432;2023-02-15T14:47:25;101075.56;;;16.20;39.89
61136;BME280;47021;51.340;12.432;2023-02-15T14:49:54;101068.72;;;16.46;39.21
61136;BME280;47021;51.340;12.432;2023-02-15T14:52:31;101067.34;;;16.52;39.86
61136;BME280;47021;51.340;12.432;2023-02-15T14:55:34;101066.25;;;16.54;39.29
61136;BME280;47021;51.340;12.432;2023-02-15T14:58:00;101068.03;;;16.25;39.08
61136;BME280;47021;51.340;12.432;2023-02-15T15:00:30;101073.44;;;16.62;38.76
61136;BME280;47021;51.340;12.432;2023-02-15T15:02:57;101070.81;;;16.43;38.92
61136;BME280;47021;51.340;12.432;2023-02-15T15:05:32;101066.06;;;16.46;38.91
61136;BME280;47021;51.340;12.432;2023-02-15T15:10:39;101060.69;;;16.48;39.07
61136;BME280;47021;51.340;12.432;2023-02-15T15:15:48;101053.72;;;16.47;39.13
61136;BME280;47021;51.340;12.432;2023-02-15T15:21:07;101047.63;;;16.46;38.76
61136;BME280;47021;51.340;12.432;2023-02-15T15:23:48;101040.13;;;16.61;38.05
61136;BME280;47021;51.340;12.432;2023-02-15T15:44:19;101028.25;;;16.28;39.78
61136;BME280;47021;51.340;12.432;2023-02-15T15:49:36;101037.16;;;16.17;39.92
61136;BME280;47021;51.340;12.432;2023-02-15T15:52:24;101032.41;;;16.11;40.22
61136;BME280;47021;51.340;12.432;2023-02-15T15:57:43;101036.31;;;15.88;40.74
61136;BME280;47021;51.340;12.432;2023-02-15T16:00:29;101027.59;;;15.78;41.40
61136;BME280;47021;51.340;12.432;2023-02-15T16:02:57;101035.06;;;15.73;40.93
61136;BME280;47021;51.340;12.432;2023-02-15T16:05:23;101025.09;;;15.58;41.45
61136;BME280;47021;51.340;12.432;2023-02-15T16:07:49;101025.50;;;15.53;41.58
61136;BME280;47021;51.340;12.432;2023-02-15T16:10:27;101020.59;;;15.39;41.94
61136;BME280;47021;51.340;12.432;2023-02-15T16:12:54;101016.13;;;15.20;42.56
61136;BME280;47021;51.340;12.432;2023-02-15T16:17:47;101012.84;;;14.88;43.57
61136;BME280;47021;51.340;12.432;2023-02-15T16:20:19;101023.78;;;14.63;44.06
61136;BME280;47021;51.340;12.432;2023-02-15T16:23:50;101023.09;;;14.61;44.14
61136;BME280;47021;51.340;12.432;2023-02-15T16:25:52;101022.41;;;14.59;44.03
61136;BME280;47021;51.340;12.432;2023-02-15T16:28:22;101022.59;;;14.46;44.15
61136;BME280;47021;51.340;12.432;2023-02-15T16:30:54;101015.09;;;14.42;44.12
61136;BME280;47021;51.340;12.432;2023-02-15T16:33:40;101019.94;;;14.37;43.95
61136;BME280;47021;51.340;12.432;2023-02-15T16:36:19;101021.09;;;14.12;45.27
61136;BME280;47021;51.340;12.432;2023-02-15T16:41:11;101020.53;;;13.88;46.01
61136;BME280;47021;51.340;12.432;2023-02-15T16:43:37;101018.84;;;13.87;45.69
61136;BME280;47021;51.340;12.432;2023-02-15T16:46:10;101026.06;;;13.74;45.99
61136;BME280;47021;51.340;12.432;2023-02-15T16:48:49;101031.69;;;13.69;45.97
61136;BME280;47021;51.340;12.432;2023-02-15T16:51:20;101020.16;;;13.61;46.36
61136;BME280;47021;51.340;12.432;2023-02-15T16:53:46;101015.97;;;13.26;47.41
61136;BME280;47021;51.340;12.432;2023-02-15T16:56:13;101011.53;;;13.05;48.14
61136;BME280;47021;51.340;12.432;2023-02-15T16:58:41;101013.94;;;13.19;48.35
61136;BME280;47021;51.340;12.432;2023-02-15T17:01:08;101018.34;;;13.18;47.98
61136;BME280;47021;51.340;12.432;2023-02-15T17:03:34;101021.59;;;13.11;48.30
61136;BME280;47021;51.340;12.432;2023-02-15T17:06:00;101015.38;;;13.12;48.18
61136;BME280;47021;51.340;12.432;2023-02-15T17:08:27;101021.84;;;13.08;48.46
61136;BME280;47021;51.340;12.432;2023-02-15T17:13:25;101029.22;;;12.81;49.57
61136;BME280;47021;51.340;12.432;2023-02-15T17:18:27;101025.84;;;12.56;50.01
61136;BME280;47021;51.340;12.432;2023-02-15T17:20:57;101031.47;;;12.74;49.82
61136;BME280;47021;51.340;12.432;2023-02-15T17:23:34;101037.53;;;12.52;50.47
61136;BME280;47021;51.340;12.432;2023-02-15T17:26:22;101031.72;;;12.60;49.92
61136;BME280;47021;51.340;12.432;2023-02-15T17:28:58;101032.75;;;12.35;50.29
61136;BME280;47021;51.340;12.432;2023-02-15T17:31:25;101029.19;;;12.47;50.40